Time;durP1;ratioP1;P1;durP2;ratioP2;P2;SDS_P1;SDS_P2;PMS_P1;PMS_P2;Temp;Humidity;BMP_temperature;BMP_pressure;BME280_temperature;BME280_humidity;BME280_pressure;Samples;Min_cycle;Max_cycle;Signal;HPM_P1;HPM_P2
2021/08/15 00:01:30;;;;;;;11.90;6.23;;;;;16.40;101255.00;;;;9939070;29;20240;-79
2021/08/15 00:06:32;;;;;;;9.90;5.70;;;;;16.40;101260.00;;;;9937719;29;20813;-78
2021/08/15 00:11:34;;;;;;;13.40;6.47;;;;;16.40;101251.00;;;;9899595;29;20211;-79
2021/08/15 00:16:37;;;;;;;11.33;6.03;;;;;16.40;101246.00;;;;9915495;29;20218;-78
2021/08/15 00:21:39;;;;;;;9.47;6.63;;;;;16.40;101248.00;;;;9900373;29;20286;-79
2021/08/15 00:26:41;;;;;;;9.07;6.13;;;;;16.40;101251.00;;;;9870247;29;20314;-79
2021/08/15 00:31:43;;;;;;;8.93;5.40;;;;;16.40;101242.00;;;;9899823;29;20681;-78
2021/08/15 00:36:45;;;;;;;11.03;6.47;;;;;16.30;101235.00;;;;9885104;29;20230;-78
2021/08/15 00:41:47;;;;;;;13.93;6.73;;;;;16.30;101241.00;;;;9874749;29;20211;-79
2021/08/15 00:46:49;;;;;;;10.87;6.13;;;;;16.30;101236.00;;;;9869651;29;20227;-79
2021/08/15 00:51:51;;;;;;;11.17;6.10;;;;;16.30;101230.00;;;;9885372;29;20216;-79
2021/08/15 00:56:54;;;;;;;11.13;5.97;;;;;16.20;101227.00;;;;9900965;29;20242;-79
2021/08/15 01:01:56;;;;;;;10.83;5.97;;;;;16.20;101226.00;;;;9913198;29;20210;-78
2021/08/15 01:06:59;;;;;;;10.63;5.87;;;;;16.10;101213.00;;;;9913272;29;20234;-78
2021/08/15 01:12:02;;;;;;;11.83;6.30;;;;;16.10;101211.00;;;;9869090;29;20912;-80
2021/08/15 01:17:04;;;;;;;15.73;6.33;;;;;16.10;101206.00;;;;9868473;29;20277;-80
2021/08/15 01:22:06;;;;;;;14.20;5.50;;;;;16.10;101195.00;;;;9912833;29;20196;-79
2021/08/15 01:27:08;;;;;;;12.27;5.57;;;;;16.10;101191.00;;;;9883987;29;20867;-78
2021/08/15 01:32:12;;;;;;;7.87;5.07;;;;;16.10;101194.00;;;;9852029;29;20284;-79
2021/08/15 01:37:22;;;;;;;9.17;5.03;;;;;16.10;101190.00;;;;9897300;29;20235;-80
2021/08/15 01:42:24;;;;;;;12.43;4.93;;;;;16.20;101180.00;;;;9896597;29;20942;-80
2021/08/15 01:47:27;;;;;;;12.33;5.07;;;;;16.20;101177.00;;;;9897205;29;20246;-80
2021/08/15 01:52:29;;;;;;;11.47;5.07;;;;;16.20;101178.00;;;;9881831;29;20618;-79
2021/08/15 01:57:31;;;;;;;10.93;4.70;;;;;16.20;101176.00;;;;9881932;29;20274;-79
2021/08/15 02:02:33;;;;;;;6.70;4.97;;;;;16.20;101168.00;;;;9884611;29;20199;-79
2021/08/15 02:07:35;;;;;;;13.83;5.23;;;;;16.10;101165.00;;;;9903951;29;20223;-80
2021/08/15 02:12:37;;;;;;;12.13;5.23;;;;;16.00;101155.00;;;;9873664;29;20212;-79
2021/08/15 02:17:39;;;;;;;10.50;5.03;;;;;15.90;101164.00;;;;9903790;29;20206;-79
2021/08/15 02:22:41;;;;;;;9.50;5.23;;;;;15.90;101158.00;;;;9859318;29;20203;-79
2021/08/15 02:27:44;;;;;;;5.77;4.00;;;;;15.80;101158.00;;;;9903212;29;20239;-80
2021/08/15 02:32:46;;;;;;;9.10;4.97;;;;;15.80;101154.00;;;;9888508;29;20222;-80
2021/08/15 02:37:51;;;;;;;9.23;4.70;;;;;15.80;101149.00;;;;9916967;29;20227;-78
2021/08/15 02:42:54;;;;;;;9.53;5.07;;;;;15.90;101134.00;;;;9887901;29;20227;-79
2021/08/15 02:47:56;;;;;;;12.23;5.10;;;;;15.90;101126.00;;;;9901936;29;20228;-78
2021/08/15 02:52:58;;;;;;;12.37;5.00;;;;;15.90;101117.00;;;;9887025;29;20218;-78
2021/08/15 02:58:00;;;;;;;9.03;5.17;;;;;16.00;101114.00;;;;9900980;29;20223;-79
2021/08/15 03:03:02;;;;;;;10.70;4.90;;;;;16.00;101118.00;;;;9886856;29;21074;-79
2021/08/15 03:08:04;;;;;;;11.27;6.20;;;;;16.00;101121.00;;;;9888206;29;20280;-79
2021/08/15 03:13:06;;;;;;;9.63;4.73;;;;;16.00;101116.00;;;;9900877;29;20203;-79
2021/08/15 03:18:08;;;;;;;15.10;5.97;;;;;16.00;101109.00;;;;9886806;29;20212;-78
2021/08/15 03:23:11;;;;;;;9.20;5.10;;;;;15.90;101110.00;;;;9895489;29;20307;-78
2021/08/15 03:28:14;;;;;;;6.93;4.97;;;;;15.80;101105.00;;;;9864923;30;20259;-79
2021/08/15 03:33:16;;;;;;;12.73;5.87;;;;;15.70;101103.00;;;;9850019;30;20208;-78
2021/08/15 03:38:18;;;;;;;17.60;6.53;;;;;15.70;101086.00;;;;9849388;30;20232;-79
2021/08/15 03:43:20;;;;;;;14.93;6.50;;;;;15.70;101085.00;;;;9878519;30;20200;-79
2021/08/15 03:48:22;;;;;;;9.20;5.73;;;;;15.70;101093.00;;;;9849271;30;20232;-79
2021/08/15 03:53:24;;;;;;;12.10;5.57;;;;;15.70;101088.00;;;;9864301;30;20572;-79
2021/08/15 03:58:28;;;;;;;12.83;5.90;;;;;15.70;101079.00;;;;9849184;30;20206;-79
2021/08/15 04:03:30;;;;;;;12.40;6.00;;;;;15.60;101083.00;;;;9848454;30;20230;-79
2021/08/15 04:08:33;;;;;;;10.37;5.97;;;;;15.60;101075.00;;;;9863306;30;20254;-79
2021/08/15 04:13:35;;;;;;;11.23;6.20;;;;;15.50;101073.00;;;;9848662;30;20212;-79
2021/08/15 04:18:37;;;;;;;13.63;6.63;;;;;15.50;101087.00;;;;9838396;29;20260;-79
2021/08/15 04:23:39;;;;;;;14.07;6.67;;;;;15.50;101080.00;;;;9891500;29;20540;-79
2021/08/15 04:28:41;;;;;;;10.43;6.10;;;;;15.50;101089.00;;;;9905611;29;20234;-79
2021/08/15 04:33:42;;;;;;;14.87;6.77;;;;;15.50;101081.00;;;;9950720;29;20245;-79
2021/08/15 04:38:44;;;;;;;12.87;6.50;;;;;15.60;101085.00;;;;9935257;29;20249;-78
2021/08/15 04:43:46;;;;;;;10.90;6.00;;;;;15.60;101062.00;;;;9920636;29;20613;-79
2021/08/15 04:48:48;;;;;;;14.70;7.20;;;;;15.60;101061.00;;;;9920590;29;20253;-79
2021/08/15 04:53:50;;;;;;;14.90;7.93;;;;;15.60;101065.00;;;;9922666;29;20794;-78
2021/08/15 04:58:52;;;;;;;11.77;6.43;;;;;15.60;101067.00;;;;9883780;29;20732;-79
2021/08/15 05:03:54;;;;;;;12.87;6.23;;;;;15.70;101058.00;;;;9875068;29;20212;-79
2021/08/15 05:08:55;;;;;;;11.90;5.67;;;;;15.90;101070.00;;;;9861326;30;20657;-79
2021/08/15 05:13:59;;;;;;;12.20;6.00;;;;;16.10;101070.00;;;;9860885;30;20205;-79
2021/08/15 05:19:02;;;;;;;12.13;6.37;;;;;16.40;101059.00;;;;9861122;30;20208;-78
2021/08/15 05:24:04;;;;;;;13.00;6.03;;;;;16.70;101075.00;;;;9873114;29;20630;-79
2021/08/15 05:29:06;;;;;;;10.53;6.07;;;;;17.00;101074.00;;;;9883004;29;20207;-79
2021/08/15 05:34:08;;;;;;;9.67;5.60;;;;;17.20;101080.00;;;;9867800;29;20207;-79
2021/08/15 05:39:09;;;;;;;13.30;5.93;;;;;17.30;101075.00;;;;9882969;29;20234;-79
2021/08/15 05:44:11;;;;;;;13.00;6.17;;;;;17.50;101077.00;;;;9908254;29;20215;-79
2021/08/15 05:49:13;;;;;;;16.98;6.35;;;;;17.70;101084.00;;;;9897186;29;20245;-79
2021/08/15 05:54:15;;;;;;;16.58;6.68;;;;;17.90;101086.00;;;;9867096;30;20220;-79
2021/08/15 05:59:17;;;;;;;11.47;6.13;;;;;18.10;101090.00;;;;9860532;30;20209;-79
2021/08/15 06:04:19;;;;;;;17.23;6.35;;;;;18.30;101085.00;;;;9848323;30;20227;-79
2021/08/15 06:09:21;;;;;;;10.88;5.20;;;;;18.40;101095.00;;;;9833642;30;20254;-78
2021/08/15 06:14:22;;;;;;;11.83;6.40;;;;;18.70;101082.00;;;;9860217;29;20215;-80
2021/08/15 06:19:24;;;;;;;9.40;5.22;;;;;19.40;101088.00;;;;9896663;29;20268;-80
2021/08/15 06:24:28;;;;;;;10.65;5.45;;;;;20.60;101082.00;;;;9881692;29;20259;-81
2021/08/15 06:29:30;;;;;;;9.98;5.10;;;;;21.50;101079.00;;;;9866033;29;20219;-79
2021/08/15 06:34:32;;;;;;;8.43;5.25;;;;;21.80;101076.00;;;;9880280;29;20212;-80
2021/08/15 06:39:35;;;;;;;7.88;4.82;;;;;21.90;101070.00;;;;9880334;29;20638;-80
2021/08/15 06:44:37;;;;;;;8.77;4.97;;;;;21.90;101077.00;;;;9866504;29;20273;-79
2021/08/15 06:49:39;;;;;;;9.43;4.65;;;;;21.80;101061.00;;;;9897427;29;20199;-80
2021/08/15 06:54:41;;;;;;;11.55;4.90;;;;;22.20;101053.00;;;;9878705;29;20616;-80
2021/08/15 06:59:44;;;;;;;10.68;5.28;;;;;22.20;101053.00;;;;9886190;29;20264;-80
2021/08/15 07:04:46;;;;;;;10.23;5.15;;;;;22.20;101052.00;;;;9899002;29;20235;-79
2021/08/15 07:09:48;;;;;;;12.38;5.10;;;;;22.10;101055.00;;;;9849515;30;20224;-80
2021/08/15 07:14:50;;;;;;;9.27;4.68;;;;;22.30;101046.00;;;;9856689;29;20215;-80
2021/08/15 07:19:51;;;;;;;9.63;4.65;;;;;22.30;101058.00;;;;9900610;29;20222;-79
2021/08/15 07:24:53;;;;;;;10.15;5.10;;;;;22.30;101051.00;;;;9868070;30;20232;-79
2021/08/15 07:29:55;;;;;;;11.90;4.80;;;;;22.20;101056.00;;;;9878334;30;20215;-79
2021/08/15 07:34:57;;;;;;;10.57;4.97;;;;;22.30;101063.00;;;;9870963;29;20207;-79
2021/08/15 07:39:59;;;;;;;10.73;5.53;;;;;22.10;101061.00;;;;9877917;30;20212;-79
2021/08/15 07:45:01;;;;;;;12.80;5.13;;;;;21.90;101054.00;;;;9851093;30;20211;-80
2021/08/15 07:50:04;;;;;;;8.60;4.45;;;;;22.00;101044.00;;;;9883076;29;20216;-80
2021/08/15 07:55:06;;;;;;;7.43;4.57;;;;;22.60;101043.00;;;;9900904;29;20260;-80
2021/08/15 08:00:10;;;;;;;10.63;4.63;;;;;23.40;101037.00;;;;9896546;29;20228;-79
2021/08/15 08:05:12;;;;;;;9.07;4.25;;;;;24.70;101031.00;;;;9884417;29;20238;-79
2021/08/15 08:10:14;;;;;;;12.50;6.50;;;;;25.90;101025.00;;;;9885783;29;20211;-81
2021/08/15 08:15:16;;;;;;;8.38;4.65;;;;;27.00;101030.00;;;;9900210;29;20223;-80
2021/08/15 08:20:20;;;;;;;8.73;4.88;;;;;28.20;101035.00;;;;9872932;29;20287;-81
2021/08/15 08:25:22;;;;;;;6.03;3.90;;;;;28.00;101026.00;;;;9870600;29;20242;-81
2021/08/15 08:30:25;;;;;;;11.93;4.85;;;;;28.60;101027.00;;;;9897129;29;20207;-81
2021/08/15 08:35:28;;;;;;;6.53;3.42;;;;;28.10;101022.00;;;;9885508;29;20223;-81
2021/08/15 08:40:30;;;;;;;5.10;3.70;;;;;28.10;101011.00;;;;9898979;29;20226;-80
2021/08/15 08:45:39;;;;;;;4.95;3.65;;;;;28.10;101012.00;;;;9884848;29;20219;-81
2021/08/15 08:50:41;;;;;;;12.60;10.02;;;;;28.00;101020.00;;;;9898656;29;20215;-81
2021/08/15 08:55:43;;;;;;;7.90;3.90;;;;;28.90;101011.00;;;;9903786;29;20260;-81
2021/08/15 09:00:46;;;;;;;9.13;4.07;;;;;30.00;101002.00;;;;9850058;29;20219;-82
2021/08/15 09:05:53;;;;;;;5.50;3.85;;;;;30.90;101003.00;;;;9869574;29;20285;-81
2021/08/15 09:11:23;;;;;;;11.73;3.58;;;;;30.80;101011.00;;;;9898735;29;20244;-82
2021/08/15 09:16:25;;;;;;;5.38;3.30;;;;;30.70;100996.00;;;;9883450;29;20208;-81
2021/08/15 09:21:29;;;;;;;5.97;3.40;;;;;30.70;101005.00;;;;9883299;29;20208;-81
2021/08/15 09:26:31;;;;;;;3.58;2.80;;;;;30.00;101001.00;;;;9852641;30;20245;-81
2021/08/15 09:31:33;;;;;;;6.20;3.20;;;;;30.60;101002.00;;;;9847059;30;20270;-81
2021/08/15 09:36:42;;;;;;;6.13;3.00;;;;;31.80;100996.00;;;;9854875;29;20813;-80
2021/08/15 09:41:50;;;;;;;5.75;3.50;;;;;32.20;101004.00;;;;9877504;29;20215;-81
2021/08/15 09:47:10;;;;;;;5.45;3.75;;;;;31.10;100994.00;;;;9883304;29;20227;-81
2021/08/15 09:52:17;;;;;;;6.68;3.47;;;;;29.80;100976.00;;;;9873712;29;20230;-81
2021/08/15 09:57:36;;;;;;;6.05;2.97;;;;;30.60;100968.00;;;;9850629;29;20211;-80
2021/08/15 10:02:38;;;;;;;6.28;3.88;;;;;31.00;100967.00;;;;9879297;29;20223;-81
2021/08/15 10:07:42;;;;;;;8.15;3.97;;;;;31.40;100966.00;;;;9872667;30;20592;-81
2021/08/15 10:12:45;;;;;;;6.68;3.55;;;;;31.70;100955.00;;;;9848226;29;20219;-80
2021/08/15 10:17:51;;;;;;;5.35;3.35;;;;;31.90;100948.00;;;;9898794;29;20208;-81
2021/08/15 10:23:05;;;;;;;4.80;3.35;;;;;32.10;100943.00;;;;9861611;29;20282;-82
2021/08/15 10:28:08;;;;;;;5.30;3.35;;;;;32.00;100951.00;;;;9902746;29;20231;-82
2021/08/15 10:33:10;;;;;;;6.30;3.53;;;;;31.80;100942.00;;;;9872214;29;20211;-81
2021/08/15 10:38:15;;;;;;;5.22;3.17;;;;;31.90;100929.00;;;;9886320;29;20288;-81
2021/08/15 10:43:23;;;;;;;6.97;3.22;;;;;32.20;100933.00;;;;9886120;29;20233;-81
2021/08/15 10:48:25;;;;;;;6.50;3.30;;;;;32.20;100922.00;;;;9848747;30;20289;-80
2021/08/15 10:53:27;;;;;;;9.68;3.80;;;;;32.20;100916.00;;;;9875512;29;20228;-79
2021/08/15 10:58:37;;;;;;;5.55;3.08;;;;;32.40;100908.00;;;;9863642;30;20212;-80
2021/08/15 11:03:49;;;;;;;6.13;3.35;;;;;32.70;100912.00;;;;9899006;29;20215;-80
2021/08/15 11:08:53;;;;;;;6.70;3.75;;;;;33.00;100907.00;;;;9884162;29;20879;-81
2021/08/15 11:14:24;;;;;;;5.68;3.42;;;;;33.50;100899.00;;;;9864913;29;20231;-81
2021/08/15 11:19:27;;;;;;;6.25;3.28;;;;;33.70;100894.00;;;;9886827;29;20265;-81
2021/08/15 11:24:38;;;;;;;6.90;3.75;;;;;33.90;100886.00;;;;9868774;29;20212;-80
2021/08/15 11:29:42;;;;;;;5.80;3.65;;;;;33.80;100879.00;;;;9867279;29;20531;-80
2021/08/15 11:34:55;;;;;;;7.10;3.85;;;;;34.00;100874.00;;;;9897691;29;20215;-80
2021/08/15 11:40:10;;;;;;;4.10;3.05;;;;;33.50;100873.00;;;;9889072;29;20890;-80
2021/08/15 11:45:12;;;;;;;6.13;3.40;;;;;33.90;100864.00;;;;9878589;29;20546;-80
2021/08/15 11:50:19;;;;;;;22.10;4.43;;;;;34.00;100856.00;;;;9872131;29;20246;-80
2021/08/15 11:55:27;;;;;;;6.50;3.35;;;;;33.90;100839.00;;;;9877904;29;20212;-81
2021/08/15 12:00:31;;;;;;;5.55;3.47;;;;;33.80;100849.00;;;;9913560;29;20208;-80
2021/08/15 12:06:05;;;;;;;6.90;3.60;;;;;33.60;100835.00;;;;9897587;29;20243;-81
2021/08/15 12:11:31;;;;;;;3.65;2.80;;;;;33.70;100830.00;;;;9848354;29;20226;-81
2021/08/15 12:16:34;;;;;;;5.03;3.33;;;;;33.80;100831.00;;;;9880630;29;20204;-81
2021/08/15 12:21:37;;;;;;;6.05;3.60;;;;;34.10;100826.00;;;;9866109;29;20235;-80
2021/08/15 12:26:44;;;;;;;4.88;3.33;;;;;33.90;100819.00;;;;9881485;29;20219;-80
2021/08/15 12:32:19;;;;;;;7.15;3.10;;;;;33.30;100818.00;;;;9875488;29;20214;-80
2021/08/15 12:37:24;;;;;;;5.75;2.85;;;;;33.00;100810.00;;;;9909590;29;20227;-80
2021/08/15 12:42:26;;;;;;;3.83;2.90;;;;;33.40;100806.00;;;;9894628;29;20216;-81
2021/08/15 12:47:33;;;;;;;4.47;3.08;;;;;33.10;100793.00;;;;9908308;29;20225;-81
2021/08/15 12:52:41;;;;;;;10.00;3.42;;;;;33.20;100798.00;;;;9848659;29;20211;-80
2021/08/15 12:57:46;;;;;;;4.43;3.10;;;;;33.50;100791.00;;;;9862862;29;20204;-80
2021/08/15 13:02:53;;;;;;;5.90;3.30;;;;;33.90;100787.00;;;;9871053;29;20299;-80
2021/08/15 13:07:55;;;;;;;5.00;3.70;;;;;33.90;100780.00;;;;9879219;29;20231;-80
2021/08/15 13:12:58;;;;;;;6.20;2.95;;;;;33.60;100767.00;;;;9863629;30;20811;-80
2021/08/15 13:18:01;;;;;;;4.88;3.30;;;;;33.00;100755.00;;;;9844151;29;20211;-79
2021/08/15 13:23:03;;;;;;;4.63;3.15;;;;;32.70;100751.00;;;;9880444;29;20225;-79
2021/08/15 13:28:06;;;;;;;5.03;3.28;;;;;32.50;100744.00;;;;9897942;29;20232;-79
2021/08/15 13:33:08;;;;;;;6.60;3.05;;;;;32.60;100725.00;;;;9848540;30;20224;-79
2021/08/15 13:38:09;;;;;;;5.40;3.33;;;;;32.90;100715.00;;;;9906564;29;20235;-79
2021/08/15 13:43:12;;;;;;;6.97;2.88;;;;;33.40;100713.00;;;;9907496;29;20203;-79
2021/08/15 13:48:14;;;;;;;8.73;3.50;;;;;33.00;100710.00;;;;9891954;29;20270;-78
2021/08/15 13:53:16;;;;;;;6.40;3.05;;;;;32.70;100708.00;;;;9891316;29;20233;-79
2021/08/15 13:58:19;;;;;;;7.78;3.28;;;;;32.40;100705.00;;;;9912536;29;20207;-79
2021/08/15 14:03:21;;;;;;;6.05;3.10;;;;;33.00;100702.00;;;;9889185;29;20575;-80
2021/08/15 14:08:23;;;;;;;4.80;3.03;;;;;33.80;100687.00;;;;9919013;29;20230;-79
2021/08/15 14:13:26;;;;;;;6.78;3.10;;;;;32.20;100679.00;;;;9850467;30;20222;-80
2021/08/15 14:18:29;;;;;;;7.35;3.00;;;;;33.60;100673.00;;;;9885409;29;20207;-79
2021/08/15 14:23:32;;;;;;;5.72;3.10;;;;;34.80;100654.00;;;;9907233;29;20237;-79
2021/08/15 14:28:34;;;;;;;5.88;3.30;;;;;33.40;100648.00;;;;9917116;29;20228;-80
2021/08/15 14:33:35;;;;;;;4.05;3.28;;;;;34.40;100640.00;;;;9874014;29;20215;-78
2021/08/15 14:38:38;;;;;;;4.13;3.28;;;;;36.80;100625.00;;;;9885064;30;20265;-80
2021/08/15 14:43:40;;;;;;;6.53;2.92;;;;;34.10;100622.00;;;;9906450;29;20204;-79
2021/08/15 14:48:42;;;;;;;5.25;2.88;;;;;33.70;100624.00;;;;9897359;29;20334;-79
2021/08/15 14:53:44;;;;;;;3.95;2.80;;;;;33.50;100601.00;;;;9922210;29;20218;-79
2021/08/15 14:58:46;;;;;;;5.50;3.30;;;;;34.20;100610.00;;;;9889500;29;20241;-78
2021/08/15 15:03:49;;;;;;;7.00;3.08;;;;;32.50;100604.00;;;;9904003;29;20219;-78
2021/08/15 15:08:51;;;;;;;4.60;2.88;;;;;31.60;100605.00;;;;9872394;29;20235;-79
2021/08/15 15:13:53;;;;;;;6.75;2.75;;;;;31.00;100599.00;;;;9897755;29;20208;-79
2021/08/15 15:18:55;;;;;;;6.45;3.40;;;;;31.00;100593.00;;;;9882100;29;20350;-79
2021/08/15 15:23:57;;;;;;;7.13;3.20;;;;;30.80;100577.00;;;;9896813;29;20211;-78
2021/08/15 15:28:59;;;;;;;8.23;3.47;;;;;30.80;100577.00;;;;9889648;29;20267;-78
2021/08/15 15:34:01;;;;;;;7.20;3.45;;;;;31.40;100574.00;;;;9830663;30;20216;-79
2021/08/15 15:39:03;;;;;;;4.78;3.17;;;;;31.30;100571.00;;;;9868015;29;20397;-79
2021/08/15 15:44:05;;;;;;;7.40;3.13;;;;;30.80;100573.00;;;;9911306;29;20207;-79
2021/08/15 15:49:09;;;;;;;5.22;3.17;;;;;31.00;100564.00;;;;9910775;29;20235;-78
2021/08/15 15:54:11;;;;;;;6.82;3.47;;;;;30.50;100564.00;;;;9869111;29;20207;-79
2021/08/15 15:59:13;;;;;;;3.83;3.22;;;;;29.90;100562.00;;;;9880833;29;20900;-79
2021/08/15 16:04:15;;;;;;;10.43;3.92;;;;;30.10;100553.00;;;;9894748;29;20216;-78
2021/08/15 16:09:18;;;;;;;10.27;4.00;;;;;30.10;100546.00;;;;9888860;29;20231;-78
2021/08/15 16:14:20;;;;;;;5.93;3.67;;;;;30.00;100547.00;;;;9889986;29;20207;-79
2021/08/15 16:19:22;;;;;;;8.40;3.88;;;;;29.80;100539.00;;;;9861666;29;20203;-78
2021/08/15 16:24:24;;;;;;;8.20;4.30;;;;;29.90;100539.00;;;;9876022;29;20740;-78
2021/08/15 16:29:26;;;;;;;8.05;4.45;;;;;29.50;100539.00;;;;9864512;30;20256;-79
2021/08/15 16:34:28;;;;;;;10.30;4.00;;;;;29.40;100534.00;;;;9907397;29;20207;-79
2021/08/15 16:39:29;;;;;;;8.23;3.75;;;;;29.60;100547.00;;;;9892289;29;20238;-78
2021/08/15 16:44:32;;;;;;;7.43;3.90;;;;;29.70;100544.00;;;;9892255;29;20204;-78
2021/08/15 16:49:34;;;;;;;5.88;3.83;;;;;29.30;100546.00;;;;9900349;29;20223;-79
2021/08/15 16:54:37;;;;;;;6.65;3.70;;;;;28.90;100548.00;;;;9874544;29;20301;-79
2021/08/15 16:59:39;;;;;;;4.65;3.33;;;;;28.50;100544.00;;;;9890095;29;20219;-79
2021/08/15 17:04:41;;;;;;;6.43;3.83;;;;;28.20;100533.00;;;;9909797;29;20889;-79
2021/08/15 17:09:43;;;;;;;8.63;2.90;;;;;27.90;100555.00;;;;9864772;30;20219;-78
2021/08/15 17:14:45;;;;;;;9.93;4.28;;;;;27.70;100555.00;;;;9893582;29;20211;-79
2021/08/15 17:19:47;;;;;;;8.68;4.30;;;;;27.10;100557.00;;;;9871281;29;20215;-78
2021/08/15 17:24:49;;;;;;;4.40;3.45;;;;;26.50;100552.00;;;;9893424;29;20212;-78
2021/08/15 17:29:50;;;;;;;6.20;3.25;;;;;26.30;100560.00;;;;9910111;29;20231;-79
2021/08/15 17:34:52;;;;;;;9.63;3.65;;;;;26.10;100550.00;;;;9868551;29;20223;-77
2021/08/15 17:39:54;;;;;;;9.65;3.83;;;;;25.80;100576.00;;;;9863318;29;20211;-78
2021/08/15 17:44:56;;;;;;;6.35;3.97;;;;;25.50;100577.00;;;;9895078;29;20199;-77
2021/08/15 17:49:58;;;;;;;6.47;3.53;;;;;25.30;100574.00;;;;9893340;29;20227;-78
2021/08/15 17:55:01;;;;;;;7.55;4.00;;;;;25.00;100570.00;;;;9885018;29;20211;-78
2021/08/15 18:00:05;;;;;;;7.18;3.67;;;;;24.90;100588.00;;;;9871943;29;20207;-77
2021/08/15 18:05:13;;;;;;;8.63;4.22;;;;;24.70;100589.00;;;;9909080;29;20291;-77
2021/08/15 18:10:18;;;;;;;9.60;4.00;;;;;24.80;100596.00;;;;9895135;29;20220;-78
2021/08/15 18:15:24;;;;;;;9.65;4.30;;;;;24.70;100597.00;;;;9895257;29;20290;-79
2021/08/15 18:20:26;;;;;;;8.82;3.95;;;;;24.60;100600.00;;;;9893730;29;20212;-77
2021/08/15 18:25:28;;;;;;;7.65;3.85;;;;;24.40;100613.00;;;;9894023;29;20749;-78
2021/08/15 18:30:30;;;;;;;10.38;4.10;;;;;24.20;100619.00;;;;9881267;29;20692;-78
2021/08/15 18:35:32;;;;;;;6.03;3.80;;;;;23.90;100623.00;;;;9899695;29;20215;-78
2021/08/15 18:40:34;;;;;;;10.20;4.22;;;;;23.60;100643.00;;;;9894047;29;20204;-78
2021/08/15 18:45:36;;;;;;;8.25;4.43;;;;;23.20;100642.00;;;;9867254;30;20204;-79
2021/08/15 18:50:42;;;;;;;9.88;3.97;;;;;22.80;100655.00;;;;9859679;30;20622;-77
2021/08/15 18:55:44;;;;;;;7.00;4.22;;;;;22.40;100654.00;;;;9899535;29;20222;-78
2021/08/15 19:00:48;;;;;;;7.28;3.28;;;;;21.90;100682.00;;;;9912601;29;20215;-77
2021/08/15 19:05:50;;;;;;;6.13;3.55;;;;;21.50;100682.00;;;;9896935;29;20211;-77
2021/08/15 19:10:52;;;;;;;7.88;3.80;;;;;21.10;100697.00;;;;9873811;29;20242;-77
2021/08/15 19:15:54;;;;;;;8.13;3.50;;;;;20.90;100710.00;;;;9890910;29;20233;-77
2021/08/15 19:20:56;;;;;;;5.78;3.05;;;;;20.70;100706.00;;;;9869342;29;20238;-77
2021/08/15 19:26:18;;;;;;;5.20;3.00;;;;;20.50;100704.00;;;;9906719;29;20215;-77
2021/08/15 19:31:20;;;;;;;5.55;2.67;;;;;20.30;100702.00;;;;9902860;29;20211;-77
2021/08/15 19:36:22;;;;;;;6.38;2.35;;;;;20.30;100712.00;;;;9884054;29;20417;-78
2021/08/15 19:41:24;;;;;;;6.60;2.53;;;;;20.30;100720.00;;;;9893200;29;20572;-77
2021/08/15 19:46:28;;;;;;;4.05;1.92;;;;;20.30;100716.00;;;;9897666;29;20228;-77
2021/08/15 19:51:32;;;;;;;2.42;1.80;;;;;20.20;100717.00;;;;9896386;29;20212;-78
2021/08/15 19:56:36;;;;;;;4.78;1.90;;;;;20.10;100716.00;;;;9885435;29;20219;-77
2021/08/15 20:01:50;;;;;;;5.68;1.67;;;;;19.90;100721.00;;;;9852834;29;20216;-78
2021/08/15 20:06:52;;;;;;;4.88;1.67;;;;;20.00;100729.00;;;;9891457;29;20551;-78
2021/08/15 20:11:56;;;;;;;4.18;1.67;;;;;20.00;100735.00;;;;9868676;30;20208;-78
2021/08/15 20:16:58;;;;;;;8.38;2.00;;;;;19.80;100743.00;;;;9874028;29;20217;-78
2021/08/15 20:22:16;;;;;;;5.93;1.58;;;;;19.40;100739.00;;;;9875574;29;20280;-77
2021/08/15 20:27:20;;;;;;;4.35;1.75;;;;;19.20;100732.00;;;;9867836;29;20272;-77
2021/08/15 20:32:22;;;;;;;4.80;1.70;;;;;19.00;100726.00;;;;9861231;29;20269;-77
2021/08/15 20:37:24;;;;;;;5.18;1.52;;;;;18.80;100726.00;;;;9884406;29;20234;-76
2021/08/15 20:42:26;;;;;;;4.15;1.63;;;;;18.70;100738.00;;;;9867017;29;20211;-77
2021/08/15 20:47:28;;;;;;;6.32;2.55;;;;;18.70;100725.00;;;;9880533;30;20305;-77
2021/08/15 20:52:31;;;;;;;12.80;2.75;;;;;18.60;100738.00;;;;9889577;29;20600;-77
2021/08/15 20:57:34;;;;;;;12.00;2.75;;;;;18.40;100734.00;;;;9894259;29;20216;-77
2021/08/15 21:02:36;;;;;;;10.35;2.80;;;;;18.20;100738.00;;;;9878796;29;20216;-77
2021/08/15 21:07:38;;;;;;;14.43;2.83;;;;;18.10;100746.00;;;;9862722;29;20251;-76
2021/08/15 21:12:40;;;;;;;7.95;2.63;;;;;17.90;100739.00;;;;9873912;29;20213;-77
2021/08/15 21:17:42;;;;;;;11.65;3.53;;;;;17.80;100746.00;;;;9892497;29;20640;-77
2021/08/15 21:22:44;;;;;;;12.13;3.22;;;;;17.70;100748.00;;;;9885876;29;20212;-77
2021/08/15 21:27:45;;;;;;;8.48;3.10;;;;;17.60;100738.00;;;;9865052;29;20784;-77
2021/08/15 21:32:48;;;;;;;6.87;3.67;;;;;17.50;100732.00;;;;9891283;29;20265;-76
2021/08/15 21:37:49;;;;;;;9.57;3.42;;;;;17.50;100739.00;;;;9861199;29;20223;-77
2021/08/15 21:42:52;;;;;;;10.97;3.03;;;;;17.40;100733.00;;;;9896684;29;20238;-77
2021/08/15 21:47:54;;;;;;;11.63;3.10;;;;;17.30;100724.00;;;;9896083;29;20226;-76
2021/08/15 21:52:56;;;;;;;10.30;2.87;;;;;17.20;100727.00;;;;9882760;29;20204;-77
2021/08/15 21:58:00;;;;;;;9.57;2.80;;;;;17.10;100726.00;;;;9879543;29;20220;-77
2021/08/15 22:03:04;;;;;;;11.17;2.83;;;;;17.10;100725.00;;;;9881105;29;20216;-77
2021/08/15 22:08:07;;;;;;;10.30;2.90;;;;;17.00;100725.00;;;;9895686;29;20476;-77
2021/08/15 22:13:09;;;;;;;7.43;2.97;;;;;17.00;100723.00;;;;9893889;29;20212;-77
2021/08/15 22:18:13;;;;;;;6.90;2.53;;;;;16.90;100719.00;;;;9911822;29;20211;-78
2021/08/15 22:23:15;;;;;;;6.67;2.63;;;;;16.90;100727.00;;;;9901254;29;20207;-77
2021/08/15 22:28:17;;;;;;;9.50;2.87;;;;;16.80;100716.00;;;;9902613;29;20231;-78
2021/08/15 22:33:19;;;;;;;8.90;2.80;;;;;16.70;100714.00;;;;9888421;29;20207;-78
2021/08/15 22:38:21;;;;;;;10.57;3.17;;;;;16.70;100709.00;;;;9888139;29;20235;-77
2021/08/15 22:43:23;;;;;;;11.10;2.73;;;;;16.60;100699.00;;;;9901325;29;20232;-78
2021/08/15 22:48:25;;;;;;;8.07;2.80;;;;;16.50;100709.00;;;;9901455;29;20353;-78
2021/08/15 22:53:26;;;;;;;13.17;2.97;;;;;16.40;100698.00;;;;9915586;29;20208;-77
2021/08/15 22:58:29;;;;;;;12.40;2.73;;;;;16.40;100698.00;;;;9901396;29;20211;-78
2021/08/15 23:03:31;;;;;;;11.97;3.07;;;;;16.30;100701.00;;;;9900419;29;20268;-77
2021/08/15 23:08:33;;;;;;;14.03;3.20;;;;;16.30;100691.00;;;;9886603;29;20282;-77
2021/08/15 23:13:35;;;;;;;11.07;3.10;;;;;16.20;100699.00;;;;9885850;29;20199;-78
2021/08/15 23:18:37;;;;;;;7.77;2.77;;;;;16.20;100690.00;;;;9886204;29;20563;-76
2021/08/15 23:23:39;;;;;;;9.83;2.90;;;;;16.10;100682.00;;;;9871099;29;20307;-76
2021/08/15 23:28:41;;;;;;;15.87;2.67;;;;;16.00;100676.00;;;;9916469;29;20540;-77
2021/08/15 23:33:43;;;;;;;9.37;2.97;;;;;16.00;100673.00;;;;9899775;29;20564;-77
2021/08/15 23:38:44;;;;;;;7.80;3.10;;;;;15.90;100677.00;;;;9885851;29;20239;-77
2021/08/15 23:43:46;;;;;;;13.67;3.03;;;;;15.90;100674.00;;;;9899062;29;20200;-77
2021/08/15 23:48:48;;;;;;;7.70;2.57;;;;;15.80;100680.00;;;;9899712;29;20692;-77
2021/08/15 23:53:50;;;;;;;17.63;3.40;;;;;15.80;100678.00;;;;9899310;29;20269;-78
2021/08/15 23:58:54;;;;;;;7.80;2.77;;;;;15.80;100675.00;;;;9899444;29;20619;-78
